Time;durP1;ratioP1;P1;durP2;ratioP2;P2;SDS_P1;SDS_P2;PMS_P1;PMS_P2;Temp;Humidity;BMP_temperature;BMP_pressure;BME280_temperature;BME280_humidity;BME280_pressure;Samples;Min_cycle;Max_cycle;Signal;HPM_P1;HPM_P2
2023/08/22 00:02:05;;;;;;;5.97;1.92;;;;;;;14.96;100.00;101472.53;5035915;28;20752;-81
2023/08/22 00:04:33;;;;;;;6.18;2.00;;;;;;;14.94;100.00;101477.50;5006583;28;20422;-81
2023/08/22 00:07:01;;;;;;;5.70;2.00;;;;;;;14.96;100.00;101492.53;5001613;28;20416;-81
2023/08/22 00:09:36;;;;;;;4.13;1.90;;;;;;;14.93;100.00;101490.38;5005676;28;20424;-81
2023/08/22 00:12:05;;;;;;;5.25;2.00;;;;;;;14.96;100.00;101495.28;5031234;28;20802;-81
2023/08/22 00:14:38;;;;;;;5.15;1.90;;;;;;;15.02;100.00;101492.50;5003547;28;20422;-82
2023/08/22 00:17:12;;;;;;;7.80;1.85;;;;;;;15.11;100.00;101496.25;4998280;28;20431;-81
2023/08/22 00:19:45;;;;;;;4.93;1.90;;;;;;;15.12;100.00;101484.97;4998683;28;20425;-81
2023/08/22 00:22:13;;;;;;;4.53;1.80;;;;;;;15.20;100.00;101471.75;5002988;28;20795;-81
2023/08/22 00:24:42;;;;;;;3.60;1.60;;;;;;;15.22;100.00;101488.69;5000703;28;20413;-81
2023/08/22 00:27:16;;;;;;;10.70;2.03;;;;;;;15.24;100.00;101478.28;5001886;28;20442;-81
2023/08/22 00:29:49;;;;;;;4.53;1.90;;;;;;;15.27;100.00;101462.06;4998724;28;20428;-81
2023/08/22 00:32:17;;;;;;;5.10;1.95;;;;;;;15.32;100.00;101454.88;5000558;28;20449;-81
2023/08/22 00:34:45;;;;;;;3.85;1.80;;;;;;;15.32;100.00;101443.91;5002849;28;20425;-81
2023/08/22 00:37:19;;;;;;;3.78;1.52;;;;;;;15.25;100.00;101450.56;5000212;28;20444;-81
2023/08/22 00:39:49;;;;;;;196.40;21.40;;;;;;;15.26;100.00;101454.94;5030886;28;20423;-82
2023/08/22 00:42:17;;;;;;;7.95;2.20;;;;;;;15.35;100.00;101454.28;5007365;28;20434;-82
2023/08/22 00:44:53;;;;;;;5.13;1.87;;;;;;;15.41;100.00;101459.44;5014346;28;20438;-81
2023/08/22 00:47:22;;;;;;;4.80;1.90;;;;;;;15.43;100.00;101459.13;5017506;28;20433;-81
2023/08/22 00:49:55;;;;;;;6.28;2.00;;;;;;;15.45;100.00;101457.72;4997088;28;20461;-81
2023/08/22 00:52:28;;;;;;;5.37;2.10;;;;;;;15.51;100.00;101453.00;5015308;28;20434;-81
2023/08/22 00:54:58;;;;;;;5.05;1.90;;;;;;;15.52;100.00;101451.84;5000341;28;20415;-81
2023/08/22 00:57:31;;;;;;;4.93;1.90;;;;;;;15.52;100.00;101445.56;5000962;28;20426;-81
2023/08/22 01:00:06;;;;;;;6.88;1.92;;;;;;;15.52;100.00;101432.66;5001115;28;20427;-81
2023/08/22 01:02:40;;;;;;;5.60;1.90;;;;;;;15.48;100.00;101437.94;5001967;28;20419;-81
2023/08/22 01:05:11;;;;;;;285.83;50.75;;;;;;;15.53;100.00;101434.28;5006662;28;20434;-81
2023/08/22 01:07:51;;;;;;;5.45;1.80;;;;;;;15.49;100.00;101430.50;5022159;28;20930;-82
2023/08/22 01:10:25;;;;;;;5.15;1.90;;;;;;;15.46;100.00;101434.66;4997488;28;20430;-81
2023/08/22 01:13:04;;;;;;;4.67;1.90;;;;;;;15.46;100.00;101429.16;4997678;28;20418;-81
2023/08/22 01:15:41;;;;;;;7.03;1.80;;;;;;;15.51;100.00;101419.25;5035307;28;20455;-81
2023/08/22 01:18:15;;;;;;;5.07;1.80;;;;;;;15.46;100.00;101412.72;4997616;28;20421;-82
2023/08/22 01:20:48;;;;;;;5.13;1.92;;;;;;;15.53;100.00;101409.59;5018736;28;20438;-81
2023/08/22 01:23:23;;;;;;;7.88;1.80;;;;;;;15.52;100.00;101416.19;4999835;28;20901;-81
2023/08/22 01:25:51;;;;;;;7.10;1.80;;;;;;;15.45;100.00;101419.31;5035451;28;20416;-82
2023/08/22 01:28:30;;;;;;;6.63;2.10;;;;;;;15.44;100.00;101423.19;5001365;28;20420;-81
2023/08/22 01:31:12;;;;;;;7.35;2.20;;;;;;;15.43;100.00;101429.75;5027873;28;20426;-81
2023/08/22 01:33:51;;;;;;;6.45;2.20;;;;;;;15.43;100.00;101416.06;5001082;28;20781;-81
2023/08/22 01:36:26;;;;;;;6.90;1.83;;;;;;;15.37;100.00;101406.28;4999996;28;20429;-81
2023/08/22 01:38:57;;;;;;;4.90;1.77;;;;;;;15.42;100.00;101417.16;5029477;28;20413;-82
2023/08/22 01:41:30;;;;;;;6.78;1.92;;;;;;;15.31;100.00;101423.88;5015436;28;20963;-81
2023/08/22 01:44:04;;;;;;;5.97;2.00;;;;;;;15.31;100.00;101426.63;5001722;28;20448;-81
2023/08/22 01:46:37;;;;;;;6.60;2.22;;;;;;;15.28;100.00;101427.22;5003338;28;20418;-81
2023/08/22 01:49:05;;;;;;;6.40;2.00;;;;;;;15.33;100.00;101427.16;5038030;28;21073;-81
2023/08/22 01:51:38;;;;;;;7.75;2.20;;;;;;;15.27;100.00;101409.13;5005218;28;20977;-82
2023/08/22 01:54:15;;;;;;;5.75;2.10;;;;;;;15.33;100.00;101420.84;5001384;28;20412;-82
2023/08/22 01:56:48;;;;;;;6.32;2.00;;;;;;;15.23;100.00;101433.59;5005187;28;20428;-81
2023/08/22 01:59:21;;;;;;;4.78;2.00;;;;;;;15.25;100.00;101425.88;4999221;28;20418;-81
2023/08/22 02:01:54;;;;;;;8.48;2.10;;;;;;;15.28;100.00;101417.06;4999926;28;20420;-81
2023/08/22 02:04:27;;;;;;;6.27;2.10;;;;;;;15.19;100.00;101405.13;5001253;28;20433;-81
2023/08/22 02:07:01;;;;;;;5.40;2.08;;;;;;;15.23;100.00;101408.09;5004965;28;20471;-81
2023/08/22 02:09:30;;;;;;;7.53;2.22;;;;;;;15.14;100.00;101411.47;5004696;28;20416;-82
2023/08/22 02:12:04;;;;;;;5.10;2.30;;;;;;;15.20;100.00;101411.41;5021423;28;20437;-81
2023/08/22 02:14:37;;;;;;;5.32;2.00;;;;;;;15.20;100.00;101404.00;5007928;28;21720;-81
2023/08/22 02:17:10;;;;;;;8.10;2.20;;;;;;;15.18;100.00;101400.75;5005326;28;20412;-81
2023/08/22 02:19:43;;;;;;;5.80;2.10;;;;;;;15.16;100.00;101402.16;5034639;28;20899;-81
2023/08/22 02:22:11;;;;;;;5.53;2.20;;;;;;;15.19;100.00;101393.31;5002751;28;20434;-82
2023/08/22 02:24:46;;;;;;;5.72;2.15;;;;;;;15.19;100.00;101394.16;5001692;28;20426;-83
2023/08/22 02:27:19;;;;;;;5.07;2.00;;;;;;;15.21;100.00;101380.97;5003015;28;20419;-82
2023/08/22 02:29:52;;;;;;;5.97;2.17;;;;;;;15.19;100.00;101371.41;5012677;28;20427;-82
2023/08/22 02:32:26;;;;;;;7.50;2.15;;;;;;;15.27;100.00;101359.78;5004054;28;20432;-81
2023/08/22 02:34:59;;;;;;;5.20;2.13;;;;;;;15.29;100.00;101347.41;5006614;28;20423;-82
2023/08/22 02:37:32;;;;;;;4.72;1.90;;;;;;;15.26;100.00;101334.28;5008851;28;20490;-81
2023/08/22 02:40:09;;;;;;;7.10;2.17;;;;;;;15.22;100.00;101329.66;5010125;28;21599;-82
2023/08/22 02:42:42;;;;;;;6.60;2.22;;;;;;;15.21;100.00;101333.53;5008157;28;20423;-81
2023/08/22 02:45:16;;;;;;;6.15;2.30;;;;;;;15.15;100.00;101332.81;5034259;28;20420;-81
2023/08/22 02:47:44;;;;;;;21.80;4.60;;;;;;;15.22;100.00;101329.66;5005575;28;20423;-82
2023/08/22 02:50:17;;;;;;;44.73;39.97;;;;;;;15.14;100.00;101336.66;5000134;28;20428;-82
2023/08/22 02:52:45;;;;;;;6.90;2.30;;;;;;;15.24;100.00;101338.44;5005521;28;20430;-81
2023/08/22 02:55:21;;;;;;;7.22;2.40;;;;;;;15.10;100.00;101346.56;5033390;28;20427;-81
2023/08/22 02:57:49;;;;;;;4.20;1.77;;;;;;;15.09;100.00;101340.28;5003337;28;20419;-82
2023/08/22 03:00:22;;;;;;;6.55;1.90;;;;;;;15.06;100.00;101337.31;4999404;28;20429;-82
2023/08/22 03:02:55;;;;;;;7.40;2.40;;;;;;;14.95;100.00;101331.94;5009421;28;20426;-82
2023/08/22 03:05:29;;;;;;;5.65;2.20;;;;;;;15.04;100.00;101342.25;5005682;28;20430;-82
2023/08/22 03:07:58;;;;;;;4.25;2.13;;;;;;;15.11;100.00;101356.44;5008152;28;20428;-81
2023/08/22 03:10:33;;;;;;;6.47;2.03;;;;;;;15.02;100.00;101353.50;5006526;28;20429;-81
2023/08/22 03:13:06;;;;;;;7.93;1.92;;;;;;;15.06;100.00;101349.06;5031483;28;20444;-81
2023/08/22 03:15:40;;;;;;;4.82;2.13;;;;;;;15.09;100.00;101350.41;5034260;28;20767;-81
2023/08/22 03:18:11;;;;;;;6.68;2.10;;;;;;;15.07;100.00;101360.88;5003871;28;20510;-81
2023/08/22 03:20:44;;;;;;;8.10;2.35;;;;;;;15.05;100.00;101371.28;5006851;28;20435;-81
2023/08/22 03:23:12;;;;;;;5.50;2.13;;;;;;;15.04;100.00;101369.66;5018724;28;20418;-80
2023/08/22 03:25:56;;;;;;;7.47;2.53;;;;;;;15.06;100.00;101365.53;5004034;28;20435;-81
2023/08/22 03:28:24;;;;;;;6.78;2.13;;;;;;;15.13;100.00;101368.75;5021242;28;20430;-81
2023/08/22 03:31:02;;;;;;;6.80;2.20;;;;;;;15.23;100.00;101351.34;5016346;28;21143;-81
2023/08/22 03:33:35;;;;;;;4.72;2.00;;;;;;;15.27;100.00;101351.53;5001869;28;20427;-81
2023/08/22 03:36:10;;;;;;;6.13;2.00;;;;;;;15.22;100.00;101359.84;5035250;28;20413;-82
2023/08/22 03:38:39;;;;;;;5.28;2.17;;;;;;;15.20;100.00;101364.81;5006013;28;20429;-82
2023/08/22 03:41:14;;;;;;;8.38;2.03;;;;;;;15.20;100.00;101348.34;5002978;28;20431;-81
2023/08/22 03:43:42;;;;;;;4.78;2.10;;;;;;;15.22;100.00;101335.16;5006912;28;20434;-82
2023/08/22 03:46:15;;;;;;;6.13;2.10;;;;;;;15.27;100.00;101315.91;4999733;28;20929;-81
2023/08/22 03:48:44;;;;;;;4.22;1.90;;;;;;;15.23;100.00;101326.66;5004935;28;20427;-81
2023/08/22 03:51:18;;;;;;;5.95;2.38;;;;;;;15.22;100.00;101335.16;4998393;28;20427;-81
2023/08/22 03:53:51;;;;;;;4.15;2.03;;;;;;;15.22;100.00;101338.72;5002422;28;20436;-81
2023/08/22 03:56:25;;;;;;;7.32;2.20;;;;;;;15.16;100.00;101356.34;4999495;28;20456;-81
2023/08/22 03:58:53;;;;;;;6.03;2.40;;;;;;;15.18;100.00;101343.16;4995524;28;20421;-82
2023/08/22 04:01:26;;;;;;;5.50;2.30;;;;;;;15.17;100.00;101343.47;4999416;28;20430;-81
2023/08/22 04:04:00;;;;;;;5.93;2.30;;;;;;;15.20;100.00;101340.13;5003755;28;20422;-81
2023/08/22 04:06:28;;;;;;;8.43;2.40;;;;;;;15.16;100.00;101328.94;4997549;28;20437;-83
2023/08/22 04:09:01;;;;;;;7.68;2.55;;;;;;;15.11;100.00;101329.81;4999479;28;20430;-82
2023/08/22 04:11:31;;;;;;;6.63;2.30;;;;;;;15.08;100.00;101329.59;4999917;28;20411;-82
2023/08/22 04:13:59;;;;;;;6.93;2.30;;;;;;;15.06;100.00;101337.31;5005217;28;20419;-81
2023/08/22 04:16:27;;;;;;;6.35;2.58;;;;;;;15.09;100.00;101345.75;5003451;28;20430;-82
2023/08/22 04:19:01;;;;;;;8.40;2.60;;;;;;;15.10;100.00;101346.56;5001922;28;20436;-81
2023/08/22 04:21:34;;;;;;;7.65;2.50;;;;;;;15.13;100.00;101343.22;5000844;28;20436;-82
2023/08/22 04:24:02;;;;;;;6.65;2.60;;;;;;;15.22;100.00;101344.22;5002396;28;20406;-80
2023/08/22 04:26:32;;;;;;;6.50;2.63;;;;;;;15.06;100.00;101346.31;5041663;28;20421;-82
2023/08/22 04:29:00;;;;;;;5.60;2.55;;;;;;;15.07;100.00;101331.53;5006641;28;20418;-81
2023/08/22 04:31:33;;;;;;;11.40;2.78;;;;;;;15.12;100.00;101328.72;5006144;28;20417;-81
2023/08/22 04:34:07;;;;;;;6.78;2.55;;;;;;;15.09;100.00;101342.19;5002518;28;20430;-81
2023/08/22 04:36:41;;;;;;;59.93;16.43;;;;;;;15.06;100.00;101348.28;5036410;28;20426;-83
2023/08/22 04:39:14;;;;;;;248.05;70.72;;;;;;;15.07;100.00;101339.75;5003258;28;20901;-81
2023/08/22 04:41:44;;;;;;;6.60;2.80;;;;;;;15.05;100.00;101333.75;5006920;28;20410;-81
2023/08/22 04:44:30;;;;;;;8.50;2.72;;;;;;;15.11;100.00;101343.53;5003043;28;20456;-82
2023/08/22 04:47:03;;;;;;;6.00;2.77;;;;;;;15.13;100.00;101354.19;5005741;28;20521;-81
2023/08/22 04:49:37;;;;;;;7.68;2.60;;;;;;;15.16;100.00;101350.06;5018636;28;20440;-82
2023/08/22 04:52:10;;;;;;;6.30;2.90;;;;;;;15.07;100.00;101336.19;5006001;28;20422;-81
2023/08/22 04:54:43;;;;;;;6.97;2.75;;;;;;;15.07;100.00;101334.25;5001005;28;20432;-81
2023/08/22 04:57:20;;;;;;;5.82;2.90;;;;;;;15.07;100.00;101319.75;5034456;28;20433;-81
2023/08/22 04:59:54;;;;;;;8.17;2.70;;;;;;;15.01;100.00;101327.22;5017530;28;20414;-81
2023/08/22 05:02:24;;;;;;;6.57;2.90;;;;;;;14.99;100.00;101321.22;5027044;28;20428;-82
2023/08/22 05:04:57;;;;;;;7.20;2.88;;;;;;;15.01;100.00;101321.75;4998277;28;20424;-81
2023/08/22 05:07:30;;;;;;;7.75;3.00;;;;;;;15.00;100.00;101322.00;4998477;28;20430;-82
2023/08/22 05:09:58;;;;;;;5.53;2.53;;;;;;;14.95;100.00;101323.72;5031123;28;20865;-81
2023/08/22 05:12:28;;;;;;;7.47;3.00;;;;;;;15.01;100.00;101321.75;4994829;28;20428;-81
2023/08/22 05:15:02;;;;;;;7.05;2.97;;;;;;;15.04;100.00;101323.06;4999266;28;20432;-80
2023/08/22 05:17:37;;;;;;;8.20;2.92;;;;;;;15.11;100.00;101321.59;5013144;28;20426;-82
2023/08/22 05:20:13;;;;;;;6.90;2.80;;;;;;;15.13;100.00;101321.31;5016970;28;20429;-81
2023/08/22 05:22:46;;;;;;;8.77;2.60;;;;;;;15.17;100.00;101327.03;4997357;28;20433;-81
2023/08/22 05:25:14;;;;;;;6.13;2.70;;;;;;;15.11;100.00;101334.50;5000139;28;20406;-82
2023/08/22 05:27:49;;;;;;;8.02;2.90;;;;;;;15.10;100.00;101330.94;5000140;28;20953;-81
2023/08/22 05:30:22;;;;;;;7.20;2.80;;;;;;;15.15;100.00;101321.84;5013901;28;20436;-81
2023/08/22 05:32:50;;;;;;;6.22;2.83;;;;;;;15.19;100.00;101328.34;5000091;28;20434;-83
2023/08/22 05:35:24;;;;;;;9.10;2.80;;;;;;;15.17;100.00;101327.03;5014106;28;20492;-81
2023/08/22 05:37:57;;;;;;;8.98;2.97;;;;;;;15.19;100.00;101319.31;5000854;28;20941;-80
2023/08/22 05:40:26;;;;;;;9.32;3.03;;;;;;;15.17;100.00;101322.34;4998865;28;20435;-81
2023/08/22 05:43:00;;;;;;;6.53;2.70;;;;;;;15.16;100.00;101320.72;4998218;28;20440;-81
2023/08/22 05:45:34;;;;;;;5.80;2.63;;;;;;;15.18;100.00;101317.66;4998505;28;20847;-80
2023/08/22 05:48:04;;;;;;;6.50;2.65;;;;;;;15.20;100.00;101318.19;5028704;28;20903;-80
2023/08/22 05:50:33;;;;;;;6.57;2.97;;;;;;;15.18;100.00;101326.72;4998029;28;20434;-81
2023/08/22 05:53:06;;;;;;;8.47;2.80;;;;;;;15.22;100.00;101321.44;4999211;28;20436;-80
2023/08/22 05:55:40;;;;;;;8.00;2.70;;;;;;;15.23;100.00;101328.56;4994873;28;20430;-80
2023/08/22 05:58:14;;;;;;;6.82;2.67;;;;;;;15.18;100.00;101334.94;5001945;28;21098;-80
2023/08/22 06:00:43;;;;;;;8.88;2.78;;;;;;;15.19;100.00;101316.56;5000551;28;20769;-80
2023/08/22 06:03:18;;;;;;;9.25;2.83;;;;;;;15.20;100.00;101334.66;5012630;28;20445;-81
2023/08/22 06:05:51;;;;;;;7.55;3.10;;;;;;;15.19;100.00;101333.84;5008129;28;20420;-81
2023/08/22 06:08:25;;;;;;;7.95;2.75;;;;;;;15.18;100.00;101326.72;4996492;28;20419;-81
2023/08/22 06:10:53;;;;;;;5.47;2.70;;;;;;;15.26;100.00;101331.53;5002466;28;20421;-80
2023/08/22 06:13:28;;;;;;;6.25;2.70;;;;;;;15.28;100.00;101321.09;4997866;28;20756;-80
2023/08/22 06:15:57;;;;;;;6.53;2.80;;;;;;;15.28;100.00;101314.78;4999321;28;20441;-81
2023/08/22 06:18:32;;;;;;;9.25;3.10;;;;;;;15.33;100.00;101314.72;4998097;28;20434;-80
2023/08/22 06:21:06;;;;;;;7.32;2.90;;;;;;;15.36;100.00;101311.38;5003375;28;20428;-80
2023/08/22 06:23:39;;;;;;;7.90;2.80;;;;;;;15.45;100.00;101304.13;4998883;28;20430;-81
2023/08/22 06:26:13;;;;;;;5.03;2.67;;;;;;;15.48;100.00;101306.28;5009692;28;20441;-81
2023/08/22 06:28:50;;;;;;;9.57;2.70;;;;;;;15.51;100.00;101306.78;4995396;28;20442;-80
2023/08/22 06:31:27;;;;;;;7.38;2.78;;;;;;;15.44;100.00;101305.22;4996965;28;20438;-80
2023/08/22 06:34:00;;;;;;;4.53;2.40;;;;;;;15.52;100.00;101311.16;4991002;28;20444;-81
2023/08/22 06:36:33;;;;;;;7.07;2.80;;;;;;;15.56;100.00;101313.00;4989472;28;20440;-84
2023/08/22 06:39:07;;;;;;;6.15;2.65;;;;;;;15.62;100.00;101311.81;4984838;28;20436;-83
2023/08/22 06:41:36;;;;;;;5.20;2.70;;;;;;;15.65;100.00;101315.88;4988385;28;20874;-83
2023/08/22 06:44:13;;;;;;;6.32;2.70;;;;;;;15.60;100.00;101315.97;4993817;28;20448;-83
2023/08/22 06:46:41;;;;;;;5.68;2.75;;;;;;;15.68;100.00;101319.97;4987348;28;20452;-83
2023/08/22 06:49:15;;;;;;;7.93;2.80;;;;;;;15.71;100.00;101324.84;4986283;28;20437;-81
2023/08/22 06:51:48;;;;;;;8.32;3.05;;;;;;;15.72;100.00;101323.75;4990329;28;20429;-82
2023/08/22 06:54:16;;;;;;;8.70;2.80;;;;;;;15.59;100.00;101317.06;4989694;28;20444;-82
2023/08/22 06:56:44;;;;;;;9.68;2.88;;;;;;;15.64;100.00;101323.28;4985114;28;20437;-81
2023/08/22 06:59:19;;;;;;;8.48;2.80;;;;;;;15.74;100.00;101324.25;4998153;28;20436;-82
2023/08/22 07:01:52;;;;;;;6.18;2.60;;;;;;;15.71;100.00;101322.91;4984513;28;20439;-83
2023/08/22 07:04:25;;;;;;;5.93;2.67;;;;;;;15.78;100.00;101312.41;4982494;28;21166;-81
2023/08/22 07:06:59;;;;;;;7.93;2.67;;;;;;;15.84;100.00;101310.41;4984453;28;20718;-83
2023/08/22 07:09:32;;;;;;;7.33;2.70;;;;;;;15.98;100.00;101303.00;4970219;28;20467;-83
2023/08/22 07:12:00;;;;;;;7.38;2.65;;;;;;;16.30;100.00;101300.53;4979260;28;20441;-84
2023/08/22 07:14:36;;;;;;;8.40;2.60;;;;;;;16.57;100.00;101305.25;4978207;28;20484;-84
2023/08/22 07:17:05;;;;;;;7.72;2.65;;;;;;;16.77;100.00;101309.50;4994915;28;20439;-81
2023/08/22 07:19:33;;;;;;;6.10;2.35;;;;;;;17.00;100.00;101307.66;5011449;28;20893;-82
2023/08/22 07:22:01;;;;;;;7.00;2.30;;;;;;;17.08;100.00;101306.13;4978209;28;20416;-83
2023/08/22 07:24:29;;;;;;;8.18;2.40;;;;;;;17.08;100.00;101303.38;4977536;28;20445;-84
2023/08/22 07:27:03;;;;;;;5.80;2.38;;;;;;;17.12;100.00;101306.31;4986867;28;20450;-81
2023/08/22 07:29:31;;;;;;;4.90;2.30;;;;;;;17.29;100.00;101312.00;4979985;28;20414;-83
2023/08/22 07:32:07;;;;;;;6.22;2.20;;;;;;;17.32;100.00;101303.09;4981865;28;20439;-84
2023/08/22 07:34:35;;;;;;;5.75;2.20;;;;;;;17.42;100.00;101299.31;4975966;28;20447;-83
2023/08/22 07:37:04;;;;;;;5.97;2.30;;;;;;;17.55;100.00;101310.56;4982207;28;20643;-83
2023/08/22 07:39:32;;;;;;;4.20;2.15;;;;;;;17.76;100.00;101299.88;4975259;28;20438;-81
2023/08/22 07:42:05;;;;;;;7.38;2.30;;;;;;;17.97;100.00;101301.03;4977940;28;20911;-83
2023/08/22 07:44:34;;;;;;;5.63;2.30;;;;;;;18.13;100.00;101295.94;4975171;28;20901;-84
2023/08/22 07:47:02;;;;;;;6.32;2.53;;;;;;;18.29;100.00;101293.56;4979229;28;20478;-83
2023/08/22 07:49:37;;;;;;;6.53;2.30;;;;;;;18.43;100.00;101287.94;4978249;28;21258;-81
2023/08/22 07:52:05;;;;;;;5.10;2.40;;;;;;;18.62;100.00;101279.41;4976987;28;20748;-82
2023/08/22 07:54:33;;;;;;;6.07;2.17;;;;;;;18.73;100.00;101282.69;4976836;28;20447;-84
2023/08/22 07:57:07;;;;;;;6.63;2.40;;;;;;;18.78;100.00;101284.47;4992508;28;20775;-84
2023/08/22 07:59:40;;;;;;;6.00;2.03;;;;;;;18.86;100.00;101291.97;4976029;28;20422;-82
2023/08/22 08:02:08;;;;;;;6.22;2.20;;;;;;;18.84;100.00;101291.47;4977612;28;20433;-82
2023/08/22 08:04:38;;;;;;;6.43;2.25;;;;;;;19.05;100.00;101294.47;4977507;28;20428;-82
2023/08/22 08:07:06;;;;;;;6.10;2.20;;;;;;;19.09;100.00;101281.66;4977016;28;20945;-84
2023/08/22 08:09:34;;;;;;;6.43;2.13;;;;;;;19.07;100.00;101283.94;4974584;28;20428;-83
2023/08/22 08:12:03;;;;;;;7.53;2.20;;;;;;;19.09;100.00;101276.13;4983613;28;20459;-82
2023/08/22 08:14:31;;;;;;;4.47;2.10;;;;;;;19.06;100.00;101282.31;4979929;28;20426;-81
2023/08/22 08:17:05;;;;;;;5.47;2.20;;;;;;;19.01;100.00;101287.97;4984016;28;20428;-82
2023/08/22 08:19:40;;;;;;;6.90;2.30;;;;;;;18.86;100.00;101290.03;4984880;28;20433;-83
2023/08/22 08:22:08;;;;;;;5.07;2.17;;;;;;;18.68;100.00;101283.66;4975467;28;21328;-84
2023/08/22 08:24:36;;;;;;;7.15;2.25;;;;;;;18.92;100.00;101287.13;4979098;28;20430;-84
2023/08/22 08:27:05;;;;;;;8.05;2.15;;;;;;;19.01;100.00;101293.47;4981913;28;20430;-82
2023/08/22 08:29:38;;;;;;;4.90;2.27;;;;;;;19.16;100.00;101289.44;4982284;28;20424;-83
2023/08/22 08:32:11;;;;;;;7.32;2.60;;;;;;;19.22;100.00;101290.91;4987710;28;20904;-84
2023/08/22 08:34:46;;;;;;;4.78;2.20;;;;;;;19.25;100.00;101292.19;4988864;28;20433;-81
2023/08/22 08:37:15;;;;;;;8.32;2.50;;;;;;;19.16;100.00;101292.22;4987126;28;20433;-82
2023/08/22 08:39:48;;;;;;;6.53;2.40;;;;;;;19.13;100.00;101301.94;4989991;28;20416;-81
2023/08/22 08:42:16;;;;;;;6.20;2.30;;;;;;;19.29;100.00;101295.94;4990494;28;20412;-83
2023/08/22 08:44:50;;;;;;;7.28;2.50;;;;;;;19.56;100.00;101307.81;4988724;28;20491;-82
2023/08/22 08:47:25;;;;;;;6.45;2.45;;;;;;;19.78;100.00;101295.75;4990455;28;20770;-82
2023/08/22 08:50:01;;;;;;;7.65;2.38;;;;;;;19.99;100.00;101305.00;4990717;28;20425;-85
2023/08/22 08:52:34;;;;;;;6.25;2.55;;;;;;;19.97;100.00;101295.41;4994501;28;20428;-83
2023/08/22 08:55:10;;;;;;;9.27;2.57;;;;;;;20.25;100.00;101284.75;4993448;28;20425;-82
2023/08/22 08:57:43;;;;;;;8.73;2.55;;;;;;;20.30;100.00;101290.13;4989103;28;20508;-82
2023/08/22 09:00:17;;;;;;;5.47;2.20;;;;;;;20.44;100.00;101297.34;4996269;28;20536;-81
2023/08/22 09:02:45;;;;;;;6.43;2.47;;;;;;;20.45;100.00;101298.97;4991044;28;20428;-83
2023/08/22 09:05:22;;;;;;;4.20;2.00;;;;;;;20.77;100.00;101296.72;4990188;28;20423;-83
2023/08/22 09:07:56;;;;;;;7.90;2.10;;;;;;;20.89;100.00;101299.59;4986865;28;20767;-82
2023/08/22 09:10:34;;;;;;;6.73;2.10;;;;;;;20.99;100.00;101293.69;4990760;28;20872;-81
2023/08/22 09:13:07;;;;;;;9.27;2.65;;;;;;;21.01;100.00;101293.34;4994627;28;20479;-84
2023/08/22 09:15:35;;;;;;;6.82;2.22;;;;;;;21.13;100.00;101292.59;4989972;28;20443;-83
2023/08/22 09:18:08;;;;;;;7.15;2.00;;;;;;;21.31;100.00;101291.31;4986929;28;20428;-82
2023/08/22 09:20:45;;;;;;;7.70;2.30;;;;;;;21.43;100.00;101296.09;4990561;28;20432;-83
2023/08/22 09:23:21;;;;;;;8.82;2.00;;;;;;;21.19;100.00;101294.81;4984783;28;21218;-82
2023/08/22 09:25:54;;;;;;;5.72;1.90;;;;;;;21.17;100.00;101296.31;4988906;28;20448;-82
2023/08/22 09:28:27;;;;;;;4.72;1.77;;;;;;;21.36;100.00;101298.59;4983818;28;20494;-82
2023/08/22 09:31:00;;;;;;;12.57;2.40;;;;;;;21.22;100.00;101293.34;4981663;28;20925;-82
2023/08/22 09:33:28;;;;;;;5.88;2.05;;;;;;;21.34;100.00;101296.16;4955925;28;20448;-82
2023/08/22 09:35:58;;;;;;;6.55;2.00;;;;;;;21.52;100.00;101291.31;4980831;28;20439;-83
2023/08/22 09:38:31;;;;;;;4.30;1.70;;;;;;;21.69;100.00;101292.31;4985588;28;20438;-82
2023/08/22 09:41:04;;;;;;;8.48;1.80;;;;;;;21.94;100.00;101287.66;4984067;28;20443;-80
2023/08/22 09:43:33;;;;;;;7.68;2.05;;;;;;;21.81;100.00;101288.78;4985281;28;20421;-83
2023/08/22 09:46:06;;;;;;;6.95;1.90;;;;;;;21.84;100.00;101286.13;4986210;28;21646;-84
2023/08/22 09:48:38;;;;;;;6.80;1.95;;;;;;;21.91;100.00;101288.34;5000969;28;20432;-81
2023/08/22 09:51:10;;;;;;;7.82;2.00;;;;;;;21.84;100.00;101277.00;4982734;28;20417;-83
2023/08/22 09:53:43;;;;;;;10.30;2.47;;;;;;;21.81;100.00;101288.78;4989339;28;20470;-82
2023/08/22 09:56:13;;;;;;;6.05;1.90;;;;;;;21.92;100.00;101284.41;4983724;28;20433;-81
2023/08/22 09:58:47;;;;;;;6.18;1.95;;;;;;;21.92;100.00;101288.00;4988512;28;20920;-82
2023/08/22 10:01:21;;;;;;;4.70;1.60;;;;;;;21.61;100.00;101291.22;4980738;28;20428;-83
2023/08/22 10:03:54;;;;;;;8.13;2.15;;;;;;;21.58;100.00;101294.69;4983205;28;20421;-83
2023/08/22 10:06:31;;;;;;;10.40;1.92;;;;;;;21.49;100.00;101282.84;4983641;28;20942;-82
2023/08/22 10:09:00;;;;;;;9.60;2.50;;;;;;;21.44;100.00;101286.66;4989849;28;20440;-83
2023/08/22 10:11:34;;;;;;;4.75;2.00;;;;;;;21.48;100.00;101290.34;4984953;28;20535;-82
2023/08/22 10:14:02;;;;;;;5.55;1.90;;;;;;;21.35;100.00;101291.44;4985560;28;20436;-82
2023/08/22 10:16:31;;;;;;;6.93;1.80;;;;;;;21.54;100.00;101289.03;5016151;28;20439;-82
2023/08/22 10:19:02;;;;;;;8.27;2.13;;;;;;;21.48;100.00;101286.78;4983688;28;20425;-82
2023/08/22 10:21:43;;;;;;;9.82;2.30;;;;;;;21.54;100.00;101283.50;4987355;28;20443;-81
2023/08/22 10:24:22;;;;;;;13.13;2.20;;;;;;;21.59;100.00;101290.78;5004569;28;20439;-81
2023/08/22 10:27:02;;;;;;;8.75;1.90;;;;;;;21.74;100.00;101289.34;4982002;28;20436;-82
2023/08/22 10:29:34;;;;;;;5.53;2.00;;;;;;;21.83;100.00;101292.00;4985890;28;20436;-82
2023/08/22 10:32:25;;;;;;;8.07;2.05;;;;;;;21.84;100.00;101282.56;4994431;28;20433;-83
2023/08/22 10:35:25;;;;;;;14.13;2.70;;;;;;;21.71;100.00;101281.72;4960860;28;20444;-83
2023/08/22 10:37:59;;;;;;;10.65;2.40;;;;;;;21.74;100.00;101281.03;4983337;28;20432;-83
2023/08/22 10:40:34;;;;;;;6.40;2.13;;;;;;;21.92;100.00;101278.88;5022223;28;20443;-82
2023/08/22 10:43:07;;;;;;;6.65;2.00;;;;;;;22.07;100.00;101280.97;4990145;28;20423;-83
2023/08/22 10:45:42;;;;;;;9.10;2.10;;;;;;;22.17;100.00;101276.16;4988718;28;20901;-83
2023/08/22 10:48:17;;;;;;;6.70;2.20;;;;;;;22.35;100.00;101271.22;4985703;28;20443;-83
2023/08/22 10:50:52;;;;;;;7.78;2.10;;;;;;;22.76;100.00;101272.94;4985409;28;20440;-82
2023/08/22 10:53:27;;;;;;;5.95;2.03;;;;;;;22.81;100.00;101271.09;4990252;28;20412;-83
2023/08/22 10:56:17;;;;;;;6.10;2.00;;;;;;;22.80;100.00;101267.50;4992709;28;20416;-83
2023/08/22 10:59:09;;;;;;;7.57;2.10;;;;;;;22.67;100.00;101265.91;4984529;28;20451;-84
2023/08/22 11:01:42;;;;;;;6.82;2.30;;;;;;;22.98;100.00;101256.94;4986214;28;21164;-81
2023/08/22 11:04:13;;;;;;;10.32;2.10;;;;;;;23.04;100.00;101255.53;4983967;28;20828;-80
2023/08/22 11:06:46;;;;;;;13.73;2.35;;;;;;;23.07;100.00;101257.59;4985826;28;20420;-82
2023/08/22 11:09:21;;;;;;;10.60;2.30;;;;;;;23.09;100.00;101258.06;4985581;28;20821;-82
2023/08/22 11:11:49;;;;;;;7.93;2.40;;;;;;;22.97;100.00;101254.53;4985496;28;21468;-84
2023/08/22 11:14:22;;;;;;;5.35;2.25;;;;;;;22.85;100.00;101252.56;4985765;28;20436;-83
2023/08/22 11:16:55;;;;;;;6.05;2.10;;;;;;;22.93;100.00;101251.63;4985848;28;20421;-82
2023/08/22 11:19:24;;;;;;;6.55;2.25;;;;;;;23.19;100.00;101251.25;4980438;28;20444;-82
2023/08/22 11:21:57;;;;;;;7.47;1.90;;;;;;;23.25;100.00;101246.25;4987243;28;21202;-81
2023/08/22 11:24:32;;;;;;;11.23;2.20;;;;;;;23.26;100.00;101245.88;4979662;28;20424;-81
2023/08/22 11:27:03;;;;;;;12.13;2.63;;;;;;;23.23;100.00;101243.81;4984612;28;20428;-83
2023/08/22 11:29:40;;;;;;;14.30;2.85;;;;;;;23.47;100.00;101232.97;4985725;28;20421;-84
2023/08/22 11:32:20;;;;;;;6.13;2.00;;;;;;;23.60;100.00;101246.44;4987339;28;20413;-83
2023/08/22 11:34:49;;;;;;;5.93;2.03;;;;;;;23.71;100.00;101243.94;4960291;28;20436;-83
2023/08/22 11:37:18;;;;;;;6.68;2.20;;;;;;;23.74;100.00;101250.78;4981111;28;20413;-81
2023/08/22 11:39:54;;;;;;;7.00;2.03;;;;;;;23.76;100.00;101248.44;5000184;28;20432;-82
2023/08/22 11:42:24;;;;;;;5.57;2.03;;;;;;;23.78;100.00;101248.88;4987478;28;20424;-82